sensor_id;sensor_type;location;lat;lon;timestamp;pressure;altitude;pressure_sealevel;temperature
85096;BMP280;75436;53.502;10.030;2024-01-30T00:00:11;102346.72;;;2.44
85096;BMP280;75436;53.502;10.030;2024-01-30T00:02:36;102335.31;;;2.45
85096;BMP280;75436;53.502;10.030;2024-01-30T00:05:02;102334.34;;;2.46
85096;BMP280;75436;53.502;10.030;2024-01-30T00:07:30;102339.66;;;2.51
85096;BMP280;75436;53.502;10.030;2024-01-30T00:09:55;102335.84;;;2.53
85096;BMP280;75436;53.502;10.030;2024-01-30T00:12:21;102345.75;;;2.56
85096;BMP280;75436;53.502;10.030;2024-01-30T00:14:46;102343.53;;;2.60
85096;BMP280;75436;53.502;10.030;2024-01-30T00:17:11;102332.34;;;2.59
85096;BMP280;75436;53.502;10.030;2024-01-30T00:19:37;102340.38;;;2.58
85096;BMP280;75436;53.502;10.030;2024-01-30T00:22:02;102338.28;;;2.66
85096;BMP280;75436;53.502;10.030;2024-01-30T00:24:28;102333.16;;;2.60
85096;BMP280;75436;53.502;10.030;2024-01-30T00:26:55;102324.81;;;2.58
85096;BMP280;75436;53.502;10.030;2024-01-30T00:29:21;102333.47;;;2.52
85096;BMP280;75436;53.502;10.030;2024-01-30T00:31:48;102338.16;;;2.43
85096;BMP280;75436;53.502;10.030;2024-01-30T00:34:13;102337.78;;;2.40
85096;BMP280;75436;53.502;10.030;2024-01-30T00:36:40;102336.78;;;2.41
85096;BMP280;75436;53.502;10.030;2024-01-30T00:39:06;102333.44;;;2.34
85096;BMP280;75436;53.502;10.030;2024-01-30T00:41:34;102330.72;;;2.29
85096;BMP280;75436;53.502;10.030;2024-01-30T00:43:59;102338.94;;;2.26
85096;BMP280;75436;53.502;10.030;2024-01-30T00:46:26;102337.81;;;2.22
85096;BMP280;75436;53.502;10.030;2024-01-30T00:48:51;102327.44;;;2.22
85096;BMP280;75436;53.502;10.030;2024-01-30T00:51:17;102324.47;;;2.19
85096;BMP280;75436;53.502;10.030;2024-01-30T00:53:42;102325.13;;;2.14
85096;BMP280;75436;53.502;10.030;2024-01-30T00:56:08;102323.16;;;2.10
85096;BMP280;75436;53.502;10.030;2024-01-30T00:58:34;102330.78;;;2.05
85096;BMP280;75436;53.502;10.030;2024-01-30T01:00:59;102329.84;;;2.00
85096;BMP280;75436;53.502;10.030;2024-01-30T01:03:24;102322.84;;;2.00
85096;BMP280;75436;53.502;10.030;2024-01-30T01:05:50;102321.63;;;2.02
85096;BMP280;75436;53.502;10.030;2024-01-30T01:08:15;102311.69;;;2.00
85096;BMP280;75436;53.502;10.030;2024-01-30T01:10:43;102321.28;;;1.99
85096;BMP280;75436;53.502;10.030;2024-01-30T01:13:10;102311.69;;;2.00
85096;BMP280;75436;53.502;10.030;2024-01-30T01:15:36;102319.69;;;1.98
85096;BMP280;75436;53.502;10.030;2024-01-30T01:18:02;102303.94;;;2.00
85096;BMP280;75436;53.502;10.030;2024-01-30T01:20:31;102306.41;;;2.12
85096;BMP280;75436;53.502;10.030;2024-01-30T01:22:56;102300.78;;;2.15
85096;BMP280;75436;53.502;10.030;2024-01-30T01:25:22;102293.56;;;2.17
85096;BMP280;75436;53.502;10.030;2024-01-30T01:27:50;102292.84;;;2.10
85096;BMP280;75436;53.502;10.030;2024-01-30T01:30:21;102298.03;;;2.10
85096;BMP280;75436;53.502;10.030;2024-01-30T01:32:50;102296.22;;;2.11
85096;BMP280;75436;53.502;10.030;2024-01-30T01:35:26;102294.22;;;2.13
85096;BMP280;75436;53.502;10.030;2024-01-30T01:37:54;102297.63;;;2.13
85096;BMP280;75436;53.502;10.030;2024-01-30T01:40:23;102285.88;;;2.29
85096;BMP280;75436;53.502;10.030;2024-01-30T01:42:56;102279.75;;;2.23
85096;BMP280;75436;53.502;10.030;2024-01-30T01:45:23;102278.75;;;2.24
85096;BMP280;75436;53.502;10.030;2024-01-30T01:47:52;102270.72;;;2.26
85096;BMP280;75436;53.502;10.030;2024-01-30T01:50:20;102279.53;;;2.25
85096;BMP280;75436;53.502;10.030;2024-01-30T01:52:50;102267.94;;;2.27
85096;BMP280;75436;53.502;10.030;2024-01-30T01:55:21;102275.25;;;2.30
85096;BMP280;75436;53.502;10.030;2024-01-30T01:57:52;102258.50;;;2.33
85096;BMP280;75436;53.502;10.030;2024-01-30T02:00:20;102265.13;;;2.29
85096;BMP280;75436;53.502;10.030;2024-01-30T02:02:46;102272.44;;;2.20
85096;BMP280;75436;53.502;10.030;2024-01-30T02:05:14;102282.44;;;2.17
85096;BMP280;75436;53.502;10.030;2024-01-30T02:07:43;102279.50;;;2.13
85096;BMP280;75436;53.502;10.030;2024-01-30T02:10:09;102277.88;;;2.12
85096;BMP280;75436;53.502;10.030;2024-01-30T02:12:35;102264.09;;;2.18
85096;BMP280;75436;53.502;10.030;2024-01-30T02:15:00;102260.84;;;2.23
85096;BMP280;75436;53.502;10.030;2024-01-30T02:17:26;102252.38;;;2.27
85096;BMP280;75436;53.502;10.030;2024-01-30T02:19:53;102245.19;;;2.29
85096;BMP280;75436;53.502;10.030;2024-01-30T02:22:20;102248.22;;;2.26
85096;BMP280;75436;53.502;10.030;2024-01-30T02:24:48;102246.41;;;2.27
85096;BMP280;75436;53.502;10.030;2024-01-30T02:27:15;102246.75;;;2.30
85096;BMP280;75436;53.502;10.030;2024-01-30T02:29:41;102244.53;;;2.34
85096;BMP280;75436;53.502;10.030;2024-01-30T02:32:07;102239.94;;;2.35
85096;BMP280;75436;53.502;10.030;2024-01-30T02:34:35;102235.53;;;2.36
85096;BMP280;75436;53.502;10.030;2024-01-30T02:37:02;102231.94;;;2.37
85096;BMP280;75436;53.502;10.030;2024-01-30T02:39:27;102236.47;;;2.41
85096;BMP280;75436;53.502;10.030;2024-01-30T02:41:52;102237.84;;;2.44
85096;BMP280;75436;53.502;10.030;2024-01-30T02:44:18;102236.41;;;2.48
85096;BMP280;75436;53.502;10.030;2024-01-30T02:46:43;102235.03;;;2.45
85096;BMP280;75436;53.502;10.030;2024-01-30T02:49:09;102234.09;;;2.40
85096;BMP280;75436;53.502;10.030;2024-01-30T02:51:34;102238.28;;;2.41
85096;BMP280;75436;53.502;10.030;2024-01-30T02:54:00;102236.25;;;2.43
85096;BMP280;75436;53.502;10.030;2024-01-30T02:56:26;102236.41;;;2.48
85096;BMP280;75436;53.502;10.030;2024-01-30T02:58:51;102211.63;;;2.52
85096;BMP280;75436;53.502;10.030;2024-01-30T03:01:17;102212.75;;;2.56
85096;BMP280;75436;53.502;10.030;2024-01-30T03:03:43;102210.47;;;2.59
85096;BMP280;75436;53.502;10.030;2024-01-30T03:06:08;102221.56;;;2.66
85096;BMP280;75436;53.502;10.030;2024-01-30T03:08:34;102216.50;;;2.71
85096;BMP280;75436;53.502;10.030;2024-01-30T03:11:00;102226.31;;;2.69
85096;BMP280;75436;53.502;10.030;2024-01-30T03:13:26;102230.34;;;2.65
85096;BMP280;75436;53.502;10.030;2024-01-30T03:15:52;102229.97;;;2.62
85096;BMP280;75436;53.502;10.030;2024-01-30T03:18:17;102244.09;;;2.54
85096;BMP280;75436;53.502;10.030;2024-01-30T03:20:43;102247.41;;;2.43
85096;BMP280;75436;53.502;10.030;2024-01-30T03:23:08;102246.06;;;2.41
85096;BMP280;75436;53.502;10.030;2024-01-30T03:25:33;102249.63;;;2.40
85096;BMP280;75436;53.502;10.030;2024-01-30T03:27:59;102240.88;;;2.41
85096;BMP280;75436;53.502;10.030;2024-01-30T03:30:24;102229.34;;;2.37
85096;BMP280;75436;53.502;10.030;2024-01-30T03:32:50;102232.94;;;2.36
85096;BMP280;75436;53.502;10.030;2024-01-30T03:35:19;102234.63;;;2.31
85096;BMP280;75436;53.502;10.030;2024-01-30T03:37:46;102248.09;;;2.21
85096;BMP280;75436;53.502;10.030;2024-01-30T03:40:12;102246.94;;;2.17
85096;BMP280;75436;53.502;10.030;2024-01-30T03:42:39;102241.41;;;2.14
85096;BMP280;75436;53.502;10.030;2024-01-30T03:45:06;102233.97;;;2.17
85096;BMP280;75436;53.502;10.030;2024-01-30T03:47:32;102228.19;;;2.22
85096;BMP280;75436;53.502;10.030;2024-01-30T03:50:00;102215.41;;;2.20
85096;BMP280;75436;53.502;10.030;2024-01-30T03:52:27;102212.66;;;2.15
85096;BMP280;75436;53.502;10.030;2024-01-30T03:54:53;102202.66;;;2.19
85096;BMP280;75436;53.502;10.030;2024-01-30T03:57:20;102191.19;;;2.26
85096;BMP280;75436;53.502;10.030;2024-01-30T03:59:47;102182.53;;;2.32
85096;BMP280;75436;53.502;10.030;2024-01-30T04:02:15;102170.31;;;2.39
85096;BMP280;75436;53.502;10.030;2024-01-30T04:04:43;102167.84;;;2.44
85096;BMP280;75436;53.502;10.030;2024-01-30T04:07:10;102165.94;;;2.51
85096;BMP280;75436;53.502;10.030;2024-01-30T04:09:38;102164.47;;;2.43
85096;BMP280;75436;53.502;10.030;2024-01-30T04:12:04;102172.00;;;2.45
85096;BMP280;75436;53.502;10.030;2024-01-30T04:14:29;102165.81;;;2.46
85096;BMP280;75436;53.502;10.030;2024-01-30T04:16:56;102172.09;;;2.38
85096;BMP280;75436;53.502;10.030;2024-01-30T04:19:21;102176.78;;;2.30
85096;BMP280;75436;53.502;10.030;2024-01-30T04:21:47;102195.91;;;2.18
85096;BMP280;75436;53.502;10.030;2024-01-30T04:24:12;102202.53;;;2.14
85096;BMP280;75436;53.502;10.030;2024-01-30T04:26:39;102207.78;;;2.07
85096;BMP280;75436;53.502;10.030;2024-01-30T04:29:05;102212.22;;;2.01
85096;BMP280;75436;53.502;10.030;2024-01-30T04:31:31;102205.34;;;1.95
85096;BMP280;75436;53.502;10.030;2024-01-30T04:33:57;102216.56;;;1.89
85096;BMP280;75436;53.502;10.030;2024-01-30T04:36:23;102209.00;;;1.87
85096;BMP280;75436;53.502;10.030;2024-01-30T04:38:50;102211.38;;;1.89
85096;BMP280;75436;53.502;10.030;2024-01-30T04:41:16;102203.25;;;1.85
85096;BMP280;75436;53.502;10.030;2024-01-30T04:43:42;102199.22;;;1.89
85096;BMP280;75436;53.502;10.030;2024-01-30T04:46:08;102190.00;;;1.93
85096;BMP280;75436;53.502;10.030;2024-01-30T04:48:35;102175.41;;;1.99
85096;BMP280;75436;53.502;10.030;2024-01-30T04:51:03;102167.19;;;2.19
85096;BMP280;75436;53.502;10.030;2024-01-30T04:53:32;102157.72;;;2.25
85096;BMP280;75436;53.502;10.030;2024-01-30T04:55:59;102142.28;;;2.18
85096;BMP280;75436;53.502;10.030;2024-01-30T04:58:25;102150.78;;;2.07
85096;BMP280;75436;53.502;10.030;2024-01-30T05:00:50;102146.34;;;2.26
85096;BMP280;75436;53.502;10.030;2024-01-30T05:03:19;102138.91;;;2.29
85096;BMP280;75436;53.502;10.030;2024-01-30T05:05:44;102144.44;;;2.21
85096;BMP280;75436;53.502;10.030;2024-01-30T05:08:11;102150.78;;;2.07
85096;BMP280;75436;53.502;10.030;2024-01-30T05:10:36;102149.50;;;1.99
85096;BMP280;75436;53.502;10.030;2024-01-30T05:13:02;102158.94;;;1.93
85096;BMP280;75436;53.502;10.030;2024-01-30T05:15:27;102153.63;;;1.88
85096;BMP280;75436;53.502;10.030;2024-01-30T05:17:53;102157.75;;;1.78
85096;BMP280;75436;53.502;10.030;2024-01-30T05:20:19;102157.56;;;1.73
85096;BMP280;75436;53.502;10.030;2024-01-30T05:22:45;102152.63;;;1.71
85096;BMP280;75436;53.502;10.030;2024-01-30T05:25:13;102156.22;;;1.70
85096;BMP280;75436;53.502;10.030;2024-01-30T05:27:38;102151.28;;;1.69
85096;BMP280;75436;53.502;10.030;2024-01-30T05:30:06;102155.22;;;1.71
85096;BMP280;75436;53.502;10.030;2024-01-30T05:32:33;102142.94;;;1.67
85096;BMP280;75436;53.502;10.030;2024-01-30T05:34:59;102142.09;;;1.67
85096;BMP280;75436;53.502;10.030;2024-01-30T05:37:24;102142.47;;;1.70
85096;BMP280;75436;53.502;10.030;2024-01-30T05:39:52;102142.28;;;1.71
85096;BMP280;75436;53.502;10.030;2024-01-30T05:42:17;102123.13;;;1.72
85096;BMP280;75436;53.502;10.030;2024-01-30T05:44:43;102116.72;;;1.75
85096;BMP280;75436;53.502;10.030;2024-01-30T05:47:08;102112.56;;;1.74
85096;BMP280;75436;53.502;10.030;2024-01-30T05:49:34;102116.31;;;1.78
85096;BMP280;75436;53.502;10.030;2024-01-30T05:52:03;102099.75;;;1.79
85096;BMP280;75436;53.502;10.030;2024-01-30T05:54:28;102092.75;;;1.79
85096;BMP280;75436;53.502;10.030;2024-01-30T05:56:54;102087.91;;;1.83
85096;BMP280;75436;53.502;10.030;2024-01-30T05:59:19;102076.34;;;1.85
85096;BMP280;75436;53.502;10.030;2024-01-30T06:01:47;102077.13;;;1.86
85096;BMP280;75436;53.502;10.030;2024-01-30T06:04:15;102074.75;;;1.84
85096;BMP280;75436;53.502;10.030;2024-01-30T06:06:41;102079.69;;;1.86
85096;BMP280;75436;53.502;10.030;2024-01-30T06:09:07;102072.31;;;1.89
85096;BMP280;75436;53.502;10.030;2024-01-30T06:11:37;102069.13;;;1.87
85096;BMP280;75436;53.502;10.030;2024-01-30T06:14:07;102065.31;;;1.90
85096;BMP280;75436;53.502;10.030;2024-01-30T06:16:33;102051.28;;;1.97
85096;BMP280;75436;53.502;10.030;2024-01-30T06:18:59;102047.81;;;2.03
85096;BMP280;75436;53.502;10.030;2024-01-30T06:21:26;102038.16;;;2.10
85096;BMP280;75436;53.502;10.030;2024-01-30T06:23:51;102041.31;;;2.12
85096;BMP280;75436;53.502;10.030;2024-01-30T06:26:17;102031.84;;;2.17
85096;BMP280;75436;53.502;10.030;2024-01-30T06:28:43;102029.84;;;2.19
85096;BMP280;75436;53.502;10.030;2024-01-30T06:31:09;102035.91;;;2.25
85096;BMP280;75436;53.502;10.030;2024-01-30T06:33:35;102024.22;;;2.34
85096;BMP280;75436;53.502;10.030;2024-01-30T06:36:01;102021.19;;;2.36
85096;BMP280;75436;53.502;10.030;2024-01-30T06:38:26;102003.38;;;2.40
85096;BMP280;75436;53.502;10.030;2024-01-30T06:40:52;102009.25;;;2.47
85096;BMP280;75436;53.502;10.030;2024-01-30T06:43:17;101999.22;;;2.50
85096;BMP280;75436;53.502;10.030;2024-01-30T06:45:43;101997.66;;;2.49
85096;BMP280;75436;53.502;10.030;2024-01-30T06:48:08;101992.00;;;2.52
85096;BMP280;75436;53.502;10.030;2024-01-30T06:50:34;101992.38;;;2.56
85096;BMP280;75436;53.502;10.030;2024-01-30T06:53:00;101994.81;;;2.62
85096;BMP280;75436;53.502;10.030;2024-01-30T06:55:27;101992.78;;;2.64
85096;BMP280;75436;53.502;10.030;2024-01-30T06:57:53;102000.00;;;2.62
85096;BMP280;75436;53.502;10.030;2024-01-30T07:00:19;101991.09;;;2.58
85096;BMP280;75436;53.502;10.030;2024-01-30T07:02:46;101990.78;;;2.55
85096;BMP280;75436;53.502;10.030;2024-01-30T07:05:13;101998.09;;;2.58
85096;BMP280;75436;53.502;10.030;2024-01-30T07:07:39;101992.38;;;2.56
85096;BMP280;75436;53.502;10.030;2024-01-30T07:10:05;101994.16;;;2.55
85096;BMP280;75436;53.502;10.030;2024-01-30T07:12:31;101992.38;;;2.56
85096;BMP280;75436;53.502;10.030;2024-01-30T07:14:57;101990.31;;;2.58
85096;BMP280;75436;53.502;10.030;2024-01-30T07:17:25;101983.00;;;2.66
85096;BMP280;75436;53.502;10.030;2024-01-30T07:19:51;101987.50;;;2.70
85096;BMP280;75436;53.502;10.030;2024-01-30T07:22:18;101980.38;;;2.77
85096;BMP280;75436;53.502;10.030;2024-01-30T07:24:44;101991.09;;;2.81
85096;BMP280;75436;53.502;10.030;2024-01-30T07:27:12;101982.06;;;2.83
85096;BMP280;75436;53.502;10.030;2024-01-30T07:29:38;101987.13;;;2.90
85096;BMP280;75436;53.502;10.030;2024-01-30T07:32:05;101990.03;;;2.93
85096;BMP280;75436;53.502;10.030;2024-01-30T07:34:35;101989.03;;;2.94
85096;BMP280;75436;53.502;10.030;2024-01-30T07:37:19;101992.75;;;2.98
85096;BMP280;75436;53.502;10.030;2024-01-30T07:39:44;101990.72;;;3.00
85096;BMP280;75436;53.502;10.030;2024-01-30T07:42:10;101989.47;;;3.02
85096;BMP280;75436;53.502;10.030;2024-01-30T07:44:35;101984.28;;;3.02
85096;BMP280;75436;53.502;10.030;2024-01-30T07:47:01;101993.19;;;3.06
85096;BMP280;75436;53.502;10.030;2024-01-30T07:49:29;101989.19;;;3.15
85096;BMP280;75436;53.502;10.030;2024-01-30T07:51:54;101989.28;;;3.20
85096;BMP280;75436;53.502;10.030;2024-01-30T07:54:20;101992.78;;;3.26
85096;BMP280;75436;53.502;10.030;2024-01-30T07:56:45;101991.53;;;3.28
85096;BMP280;75436;53.502;10.030;2024-01-30T07:59:12;101989.28;;;3.32
85096;BMP280;75436;53.502;10.030;2024-01-30T08:01:38;101986.78;;;3.36
85096;BMP280;75436;53.502;10.030;2024-01-30T08:04:03;101983.47;;;3.41
85096;BMP280;75436;53.502;10.030;2024-01-30T08:06:29;101995.19;;;3.43
85096;BMP280;75436;53.502;10.030;2024-01-30T08:08:56;101989.78;;;3.45
85096;BMP280;75436;53.502;10.030;2024-01-30T08:11:22;101995.63;;;3.52
85096;BMP280;75436;53.502;10.030;2024-01-30T08:13:51;101992.25;;;3.51
85096;BMP280;75436;53.502;10.030;2024-01-30T08:16:19;102002.72;;;3.56
85096;BMP280;75436;53.502;10.030;2024-01-30T08:18:46;102011.06;;;3.58
85096;BMP280;75436;53.502;10.030;2024-01-30T08:21:11;102008.03;;;3.61
85096;BMP280;75436;53.502;10.030;2024-01-30T08:23:38;102017.69;;;3.66
85096;BMP280;75436;53.502;10.030;2024-01-30T08:26:06;102022.75;;;3.72
85096;BMP280;75436;53.502;10.030;2024-01-30T08:28:32;102033.78;;;3.79
85096;BMP280;75436;53.502;10.030;2024-01-30T08:30:59;102035.44;;;3.85
85096;BMP280;75436;53.502;10.030;2024-01-30T08:33:25;102031.34;;;3.89
85096;BMP280;75436;53.502;10.030;2024-01-30T08:35:50;102042.97;;;3.98
85096;BMP280;75436;53.502;10.030;2024-01-30T08:38:16;102053.19;;;4.04
85096;BMP280;75436;53.502;10.030;2024-01-30T08:40:42;102059.50;;;4.08
85096;BMP280;75436;53.502;10.030;2024-01-30T08:43:09;102067.72;;;4.16
85096;BMP280;75436;53.502;10.030;2024-01-30T08:45:35;102064.97;;;4.23
85096;BMP280;75436;53.502;10.030;2024-01-30T08:48:03;102071.19;;;4.22
85096;BMP280;75436;53.502;10.030;2024-01-30T08:50:28;102083.00;;;4.29
85096;BMP280;75436;53.502;10.030;2024-01-30T08:52:54;102083.47;;;4.42
85096;BMP280;75436;53.502;10.030;2024-01-30T08:55:20;102078.28;;;4.42
85096;BMP280;75436;53.502;10.030;2024-01-30T08:57:45;102091.44;;;4.52
85096;BMP280;75436;53.502;10.030;2024-01-30T09:00:11;102106.56;;;4.71
85096;BMP280;75436;53.502;10.030;2024-01-30T09:02:37;102115.31;;;4.82
85096;BMP280;75436;53.502;10.030;2024-01-30T09:05:03;102127.13;;;4.89
85096;BMP280;75436;53.502;10.030;2024-01-30T09:07:28;102137.19;;;5.02
85096;BMP280;75436;53.502;10.030;2024-01-30T09:09:54;102148.25;;;5.09
85096;BMP280;75436;53.502;10.030;2024-01-30T09:12:19;102151.78;;;5.19
85096;BMP280;75436;53.502;10.030;2024-01-30T09:14:45;102160.66;;;5.23
85096;BMP280;75436;53.502;10.030;2024-01-30T09:17:11;102177.53;;;5.37
85096;BMP280;75436;53.502;10.030;2024-01-30T09:19:38;102192.22;;;5.64
85096;BMP280;75436;53.502;10.030;2024-01-30T09:22:03;102212.13;;;5.75
85096;BMP280;75436;53.502;10.030;2024-01-30T09:24:29;102224.50;;;5.84
85096;BMP280;75436;53.502;10.030;2024-01-30T09:26:54;102249.81;;;5.88
85096;BMP280;75436;53.502;10.030;2024-01-30T09:29:21;102258.41;;;5.84
85096;BMP280;75436;53.502;10.030;2024-01-30T09:31:47;102269.19;;;5.92
85096;BMP280;75436;53.502;10.030;2024-01-30T09:34:14;102267.06;;;5.89
85096;BMP280;75436;53.502;10.030;2024-01-30T09:36:39;102273.94;;;5.95
85096;BMP280;75436;53.502;10.030;2024-01-30T09:39:05;102290.41;;;6.01
85096;BMP280;75436;53.502;10.030;2024-01-30T09:41:44;102292.78;;;6.02
85096;BMP280;75436;53.502;10.030;2024-01-30T09:44:15;102289.78;;;6.15
85096;BMP280;75436;53.502;10.030;2024-01-30T09:46:43;102293.50;;;6.19
85096;BMP280;75436;53.502;10.030;2024-01-30T09:49:13;102300.84;;;6.22
85096;BMP280;75436;53.502;10.030;2024-01-30T09:51:39;102292.03;;;6.28
85096;BMP280;75436;53.502;10.030;2024-01-30T09:54:08;102296.53;;;6.32
85096;BMP280;75436;53.502;10.030;2024-01-30T09:56:35;102284.38;;;6.43
85096;BMP280;75436;53.502;10.030;2024-01-30T09:59:00;102290.47;;;6.53
85096;BMP280;75436;53.502;10.030;2024-01-30T10:01:25;102292.72;;;6.71
85096;BMP280;75436;53.502;10.030;2024-01-30T10:03:52;102293.69;;;6.91
85096;BMP280;75436;53.502;10.030;2024-01-30T10:06:18;102292.19;;;7.00
85096;BMP280;75436;53.502;10.030;2024-01-30T10:08:46;102293.19;;;6.94
85096;BMP280;75436;53.502;10.030;2024-01-30T10:11:12;102280.25;;;7.09
85096;BMP280;75436;53.502;10.030;2024-01-30T10:13:38;102316.13;;;7.18
85096;BMP280;75436;53.502;10.030;2024-01-30T10:16:05;102295.69;;;7.10
85096;BMP280;75436;53.502;10.030;2024-01-30T10:18:32;102305.78;;;7.38
85096;BMP280;75436;53.502;10.030;2024-01-30T10:20:59;102307.69;;;7.47
85096;BMP280;75436;53.502;10.030;2024-01-30T10:23:24;102316.09;;;7.54
85096;BMP280;75436;53.502;10.030;2024-01-30T10:25:53;102306.66;;;7.53
85096;BMP280;75436;53.502;10.030;2024-01-30T10:28:20;102330.16;;;7.48
85096;BMP280;75436;53.502;10.030;2024-01-30T10:30:46;102318.97;;;7.57
85096;BMP280;75436;53.502;10.030;2024-01-30T10:33:22;102317.69;;;7.60
85096;BMP280;75436;53.502;10.030;2024-01-30T10:35:48;102303.56;;;7.66
85096;BMP280;75436;53.502;10.030;2024-01-30T10:38:15;102298.88;;;7.68
85096;BMP280;75436;53.502;10.030;2024-01-30T10:40:43;102301.88;;;7.86
85096;BMP280;75436;53.502;10.030;2024-01-30T10:43:10;102301.13;;;7.95
85096;BMP280;75436;53.502;10.030;2024-01-30T10:45:40;102314.19;;;7.85
85096;BMP280;75436;53.502;10.030;2024-01-30T10:48:09;102316.78;;;7.90
85096;BMP280;75436;53.502;10.030;2024-01-30T10:50:36;102305.28;;;7.86
85096;BMP280;75436;53.502;10.030;2024-01-30T10:53:03;102310.00;;;7.99
85096;BMP280;75436;53.502;10.030;2024-01-30T10:55:30;102304.25;;;7.97
85096;BMP280;75436;53.502;10.030;2024-01-30T10:57:56;102295.88;;;7.95
85096;BMP280;75436;53.502;10.030;2024-01-30T11:00:22;102295.16;;;8.05
85096;BMP280;75436;53.502;10.030;2024-01-30T11:02:50;102300.63;;;8.03
85096;BMP280;75436;53.502;10.030;2024-01-30T11:05:24;102294.41;;;8.24
85096;BMP280;75436;53.502;10.030;2024-01-30T11:07:51;102294.41;;;8.24
85096;BMP280;75436;53.502;10.030;2024-01-30T11:10:17;102296.78;;;8.35
85096;BMP280;75436;53.502;10.030;2024-01-30T11:12:42;102308.28;;;8.39
85096;BMP280;75436;53.502;10.030;2024-01-30T11:15:16;102314.84;;;8.32
85096;BMP280;75436;53.502;10.030;2024-01-30T11:22:51;102293.41;;;8.44
85096;BMP280;75436;53.502;10.030;2024-01-30T11:25:20;102289.72;;;8.40
85096;BMP280;75436;53.502;10.030;2024-01-30T11:27:49;102285.03;;;8.52
85096;BMP280;75436;53.502;10.030;2024-01-30T11:30:24;102302.34;;;8.63
85096;BMP280;75436;53.502;10.030;2024-01-30T11:33:06;102306.50;;;8.79
85096;BMP280;75436;53.502;10.030;2024-01-30T11:35:38;102308.34;;;8.68
85096;BMP280;75436;53.502;10.030;2024-01-30T11:38:07;102303.34;;;8.77
85096;BMP280;75436;53.502;10.030;2024-01-30T11:40:37;102303.34;;;8.77
85096;BMP280;75436;53.502;10.030;2024-01-30T11:43:05;102301.25;;;8.69
85096;BMP280;75436;53.502;10.030;2024-01-30T11:45:32;102302.31;;;8.78
85096;BMP280;75436;53.502;10.030;2024-01-30T11:47:59;102292.34;;;8.85
85096;BMP280;75436;53.502;10.030;2024-01-30T11:50:27;102291.84;;;8.73
85096;BMP280;75436;53.502;10.030;2024-01-30T11:52:54;102294.47;;;8.73
85096;BMP280;75436;53.502;10.030;2024-01-30T11:55:20;102281.38;;;8.83
85096;BMP280;75436;53.502;10.030;2024-01-30T11:57:45;102277.44;;;8.80
85096;BMP280;75436;53.502;10.030;2024-01-30T12:00:18;102274.56;;;8.82
85096;BMP280;75436;53.502;10.030;2024-01-30T12:02:55;102276.09;;;8.88
85096;BMP280;75436;53.502;10.030;2024-01-30T12:05:22;102270.88;;;8.97
85096;BMP280;75436;53.502;10.030;2024-01-30T12:07:48;102273.47;;;9.02
85096;BMP280;75436;53.502;10.030;2024-01-30T12:10:13;102278.19;;;9.05
85096;BMP280;75436;53.502;10.030;2024-01-30T12:12:45;102257.47;;;9.14
85096;BMP280;75436;53.502;10.030;2024-01-30T12:15:13;102265.59;;;9.12
85096;BMP280;75436;53.502;10.030;2024-01-30T12:17:39;102264.28;;;9.20
85096;BMP280;75436;53.502;10.030;2024-01-30T12:20:06;102263.78;;;9.18
85096;BMP280;75436;53.502;10.030;2024-01-30T12:22:37;102267.38;;;9.22
85096;BMP280;75436;53.502;10.030;2024-01-30T12:25:11;102268.72;;;9.19
85096;BMP280;75436;53.502;10.030;2024-01-30T12:27:45;102264.78;;;9.26
85096;BMP280;75436;53.502;10.030;2024-01-30T12:30:13;102268.69;;;9.34
85096;BMP280;75436;53.502;10.030;2024-01-30T12:32:41;102255.31;;;9.35
85096;BMP280;75436;53.502;10.030;2024-01-30T12:35:16;102240.13;;;9.32
85096;BMP280;75436;53.502;10.030;2024-01-30T12:37:44;102242.47;;;9.34
85096;BMP280;75436;53.502;10.030;2024-01-30T12:40:12;102251.63;;;9.41
85096;BMP280;75436;53.502;10.030;2024-01-30T12:42:43;102250.25;;;9.49
85096;BMP280;75436;53.502;10.030;2024-01-30T12:45:13;102246.31;;;9.56
85096;BMP280;75436;53.502;10.030;2024-01-30T12:47:40;102245.25;;;9.62
85096;BMP280;75436;53.502;10.030;2024-01-30T12:50:06;102255.44;;;9.68
85096;BMP280;75436;53.502;10.030;2024-01-30T12:52:35;102256.75;;;9.71
85096;BMP280;75436;53.502;10.030;2024-01-30T12:55:00;102253.34;;;9.70
85096;BMP280;75436;53.502;10.030;2024-01-30T12:57:26;102247.03;;;9.71
85096;BMP280;75436;53.502;10.030;2024-01-30T12:59:51;102249.91;;;9.70
85096;BMP280;75436;53.502;10.030;2024-01-30T13:02:19;102249.09;;;9.74
85096;BMP280;75436;53.502;10.030;2024-01-30T13:04:45;102246.69;;;9.87
85096;BMP280;75436;53.502;10.030;2024-01-30T13:07:11;102264.19;;;9.97
85096;BMP280;75436;53.502;10.030;2024-01-30T13:09:36;102274.19;;;10.00
85096;BMP280;75436;53.502;10.030;2024-01-30T13:12:03;102276.00;;;9.99
85096;BMP280;75436;53.502;10.030;2024-01-30T13:14:28;102279.13;;;10.06
85096;BMP280;75436;53.502;10.030;2024-01-30T13:16:54;102284.59;;;10.10
85096;BMP280;75436;53.502;10.030;2024-01-30T13:19:21;102282.19;;;10.18
85096;BMP280;75436;53.502;10.030;2024-01-30T13:21:48;102284.59;;;10.10
85096;BMP280;75436;53.502;10.030;2024-01-30T13:24:14;102278.31;;;10.06
85096;BMP280;75436;53.502;10.030;2024-01-30T13:26:39;102276.25;;;10.03
85096;BMP280;75436;53.502;10.030;2024-01-30T13:29:05;102280.97;;;10.01
85096;BMP280;75436;53.502;10.030;2024-01-30T13:31:30;102273.66;;;9.98
85096;BMP280;75436;53.502;10.030;2024-01-30T13:33:56;102273.44;;;9.89
85096;BMP280;75436;53.502;10.030;2024-01-30T13:36:22;102262.19;;;9.84
85096;BMP280;75436;53.502;10.030;2024-01-30T13:38:48;102261.13;;;9.85
85096;BMP280;75436;53.502;10.030;2024-01-30T13:41:14;102253.78;;;9.82
85096;BMP280;75436;53.502;10.030;2024-01-30T13:43:43;102254.03;;;9.81
85096;BMP280;75436;53.502;10.030;2024-01-30T13:46:09;102251.94;;;9.83
85096;BMP280;75436;53.502;10.030;2024-01-30T13:48:35;102245.91;;;9.82
85096;BMP280;75436;53.502;10.030;2024-01-30T13:51:03;102250.09;;;9.88
85096;BMP280;75436;53.502;10.030;2024-01-30T13:53:29;102254.06;;;9.85
85096;BMP280;75436;53.502;10.030;2024-01-30T13:55:54;102246.16;;;9.85
85096;BMP280;75436;53.502;10.030;2024-01-30T13:58:21;102244.34;;;9.81